East Texas Regional Airport
KGGG : now visible

Airfield :











YOU CAN JOIN US ON...

 
LOGIN :

Register | Disclaimer

   EN    FR    IT 

 









Legend :    VFR   Marginal VFR   IFR   Intensive IFR   Very Intensive IFR
Visi :
Ceiling :
>= 8 km
>= 3000ft
5 to 8 km
1000 to 3000 ft
1500m to 5 km
500 to 1000 ft
800 to 1500m
200 to 500 ft
< 800m
< 200 ft
Symbols :   Thunderstorms  Fog  Heavy snow  Heavy precipitations  Wind > 20 kt






- Airport Elevation : 365 ft
- IATA code : GGG


KGGG - East Texas Regional

CURRENT METAR :
  • 201553Z 19010KT 10SM SCT013 BKN080 24/20 A3007 RMK AO2 SLP177 T02390200

EXPIRED METARs :
  • 201508Z 19007KT 10SM FEW009 SCT015 OVC085 24/20 A3008 RMK AO2 T02440200
  • 201505Z 20006KT 10SM SCT011 BKN015 OVC085 24/21 A3008 RMK AO2 T02440206
  • 201353Z 16005KT 10SM BKN008 BKN090 24/21 A3006 RMK AO2 SLP174 T02390206

TAF KGGG
Valid from the 20 at 12:00 until the 21 at 12:00 UTC


201149Z 2012/2112 20004KT P6SM SCT008 OVC090
FM201500 16005KT P6SM BKN015 OVC025
FM201800 17010KT P6SM SCT025 BKN035
FM210000 14004KT P6SM BKN250
FM210600 16004KT 6SM BR BKN250
FM211100 14003KT 4SM BR BKN003
KZFW FIR / North America



MET'MAP, your aeronautical weather chart ! - Copyright ORBIFLY December 2007 - Disclaimer

ORBIFLY MET'MAP TEAM :

Programming & Development : Alexandra Zaïnal
Concept & original design : Baudouin d'Aumeries
Assistance for programming : Marc-Olivier Méhu
Technical & hardware support : Manuel Goepfert

Contact : metmap@orbifly.com




SOURCES & CREDITS :

   NOAA       Earth
Advisory